Terminal Aerodrome Forecast
Issued by NWS Spokane, WA

Current Version | Previous Version | Text Only | Print | Product List | Glossary On
Versions: 1 2 3 4 5 6 7 8 9 10 11 12
000
FTUS46 KOTX 182326
TAFGEG
TAF
KGEG 182326Z 1900/1924 24015G21KT P6SM FEW150 BKN200
     FM190200 23012KT P6SM SCT200
     FM191500 22008G14KT P6SM FEW070=

USA.gov is the U.S. government's official web portal to all federal, state and local government web resources and services.